Friday, January 18, 2019, 3:07 AM EST
Back to Local

KLEB, Lebanon Municipal Airport

Location: Lebanon, NH, United States Lat: 43.633
Local Time: 3:07 AM EST ( 8:07 GMT) Lon: -72.3
Time Zone: US/Eastern Elev: 597 ft

Show me the last for .
Show Decoded

2019-01-18 02:53 METAR KLEB 180753Z AUTO 00000KT 10SM BKN055 OVC070 M10/M16 A3017 RMK AO2 SLP233
                 T11001156 =
2019-01-18 01:53 METAR KLEB 180653Z AUTO 18003KT 10SM BKN085 OVC100 M11/M16 A3018 RMK AO2 SLP238
                 T11061156 =
2019-01-18 00:53 METAR KLEB 180553Z AUTO 00000KT 10SM OVC090 M11/M16 A3020 RMK AO2 SLP245
                 T11061161 11100 21111 58023 =
2019-01-17 23:53 METAR KLEB 180453Z AUTO 17003KT 10SM OVC090 M11/M16 A3023 RMK AO2 SLP257
                 T11061161 410721239 =
2019-01-17 22:53 METAR KLEB 180353Z AUTO 00000KT 10SM OVC100 M11/M17 A3026 RMK AO2 SLP266
                 T11061167 =
2019-01-17 21:53 METAR KLEB 180253Z 01003KT 10SM FEW090 BKN110 M10/M18 A3027 RMK AO2 SLP269
                 T11001183 56008 =
2019-01-17 20:53 METAR KLEB 180153Z 00000KT 10SM SCT110 M11/M17 A3028 RMK AO2 SLP274 T11061167 =
2019-01-17 19:53 METAR KLEB 180053Z 00000KT 10SM OVC110 M11/M16 A3028 RMK AO2 SLP277 T11061161 =
2019-01-17 18:53 METAR KLEB 172353Z 00000KT 10SM SCT120 M11/M17 A3029 RMK AO2 SLP282 T11061172
                 11072 21122 55001 =
2019-01-17 17:53 METAR KLEB 172253Z 00000KT 10SM CLR M11/M18 A3029 RMK AO2 SLP279 T11111178 =
2019-01-17 16:53 METAR KLEB 172153Z 00000KT 10SM CLR M11/M18 A3028 RMK AO2 SLP278 T11111178 =
2019-01-17 15:53 METAR KLEB 172053Z 05004KT 10SM CLR M09/M19 A3030 RMK AO2 SLP279 T10891194 56016
                 =
2019-01-17 14:53 METAR KLEB 171953Z 00000KT 10SM CLR M08/M20 A3031 RMK AO2 SLP283 T10831200 =
2019-01-17 13:53 METAR KLEB 171853Z 00000KT 10SM CLR M08/M19 A3032 RMK AO2 SLP284 T10831194 =
2019-01-17 12:53 METAR KLEB 171753Z 17003KT 10SM CLR M11/M19 A3034 RMK AO2 SLP294 I6000 T11061189
                 11106 21239 58026 =
2019-01-17 11:53 METAR KLEB 171653Z 00000KT 10SM CLR M11/M19 A3037 RMK AO2 SLP305 T11111194 =
2019-01-17 10:53 METAR KLEB 171553Z 00000KT 10SM CLR M12/M19 A3041 RMK AO2 SLP318 T11221194 =
2019-01-17 09:53 METAR KLEB 171453Z 00000KT 10SM CLR M14/M20 A3042 RMK AO2 SLP320 I3000 T11441200
                 51022 =
2019-01-17 08:53 METAR KLEB 171353Z 00000KT 9SM CLR M19/M22 A3041 RMK AO2 SLP316 T11891222 =
2019-01-17 07:53 METAR KLEB 171253Z 00000KT 10SM CLR M23/M27 A3038 RMK AO2 SLP309 I1000 T12331267
                 =
2019-01-17 06:53 METAR KLEB 171153Z 00000KT 10SM CLR M23/M27 A3035 RMK AO2 SLP299 I1000 I6000
                 T12331272 11111 21239 53018 =
2019-01-17 05:53 METAR KLEB 171053Z AUTO 00000KT 10SM CLR M21/M23 A3033 RMK AO2 SLP289 I1000
                 T12061233 =
2019-01-17 04:53 METAR KLEB 170953Z AUTO 04003KT 10SM CLR M23/M25 A3031 RMK AO2 SLP282 T12281250
                 =
2019-01-17 03:53 METAR KLEB 170853Z AUTO 00000KT 10SM CLR M17/M21 A3030 RMK AO2 SLP276 T11671211
                 51029 =

Support USWX by starting your Amazon purchase here.